sensor_id;sensor_type;location;lat;lon;timestamp;pressure;altitude;pressure_sealevel;temperature;humidity
15568;BME280;7885;42.596;23.044;2023-05-19T00:00:55;93193.31;;;12.01;100.00
15568;BME280;7885;42.596;23.044;2023-05-19T00:03:22;93173.88;;;11.88;100.00
15568;BME280;7885;42.596;23.044;2023-05-19T00:05:51;93182.81;;;11.99;100.00
15568;BME280;7885;42.596;23.044;2023-05-19T00:08:19;93154.41;;;11.86;100.00
15568;BME280;7885;42.596;23.044;2023-05-19T00:10:49;93178.50;;;12.02;100.00
15568;BME280;7885;42.596;23.044;2023-05-19T00:13:17;93177.75;;;11.98;100.00
15568;BME280;7885;42.596;23.044;2023-05-19T00:15:44;93182.78;;;12.03;100.00
15568;BME280;7885;42.596;23.044;2023-05-19T00:18:11;93175.00;;;11.98;100.00
15568;BME280;7885;42.596;23.044;2023-05-19T00:20:38;93157.50;;;11.92;100.00
15568;BME280;7885;42.596;23.044;2023-05-19T00:23:05;93164.88;;;12.02;100.00
15568;BME280;7885;42.596;23.044;2023-05-19T00:25:32;93155.94;;;11.94;100.00
15568;BME280;7885;42.596;23.044;2023-05-19T00:28:00;93179.28;;;12.06;100.00
15568;BME280;7885;42.596;23.044;2023-05-19T00:30:27;93178.50;;;12.02;100.00
15568;BME280;7885;42.596;23.044;2023-05-19T00:32:54;93173.84;;;11.99;100.00
15568;BME280;7885;42.596;23.044;2023-05-19T00:35:21;93176.97;;;11.97;100.00
15568;BME280;7885;42.596;23.044;2023-05-19T00:37:48;93175.44;;;11.93;100.00
15568;BME280;7885;42.596;23.044;2023-05-19T00:40:15;93177.00;;;11.87;100.00
15568;BME280;7885;42.596;23.044;2023-05-19T00:42:42;93161.84;;;11.82;100.00
15568;BME280;7885;42.596;23.044;2023-05-19T00:45:10;93170.75;;;11.90;100.00
15568;BME280;7885;42.596;23.044;2023-05-19T00:47:38;93168.41;;;11.92;100.00
15568;BME280;7885;42.596;23.044;2023-05-19T00:50:05;93146.66;;;11.78;100.00
15568;BME280;7885;42.596;23.044;2023-05-19T00:52:32;93159.09;;;11.86;100.00
15568;BME280;7885;42.596;23.044;2023-05-19T00:54:58;93162.59;;;11.83;100.00
15568;BME280;7885;42.596;23.044;2023-05-19T00:57:25;93159.50;;;11.81;100.00
15568;BME280;7885;42.596;23.044;2023-05-19T00:59:53;93159.91;;;11.76;100.00
15568;BME280;7885;42.596;23.044;2023-05-19T01:02:21;93154.09;;;11.59;100.00
15568;BME280;7885;42.596;23.044;2023-05-19T01:04:49;93133.53;;;11.44;100.00
15568;BME280;7885;42.596;23.044;2023-05-19T01:07:16;93160.72;;;11.58;100.00
15568;BME280;7885;42.596;23.044;2023-05-19T01:09:44;93164.63;;;11.50;100.00
15568;BME280;7885;42.596;23.044;2023-05-19T01:12:13;93152.97;;;11.50;100.00
15568;BME280;7885;42.596;23.044;2023-05-19T01:14:40;93162.31;;;11.45;100.00
15568;BME280;7885;42.596;23.044;2023-05-19T01:17:13;93163.50;;;11.44;100.00
15568;BME280;7885;42.596;23.044;2023-05-19T01:19:58;93168.94;;;11.44;100.00
15568;BME280;7885;42.596;23.044;2023-05-19T01:22:57;93160.78;;;11.37;100.00
15568;BME280;7885;42.596;23.044;2023-05-19T01:28:56;93159.63;;;11.17;100.00
15568;BME280;7885;42.596;23.044;2023-05-19T01:31:30;93162.41;;;10.99;100.00
15568;BME280;7885;42.596;23.044;2023-05-19T01:33:57;93161.63;;;10.95;100.00
15568;BME280;7885;42.596;23.044;2023-05-19T01:36:26;93163.19;;;10.89;100.00
15568;BME280;7885;42.596;23.044;2023-05-19T01:38:55;93177.19;;;10.84;100.00
15568;BME280;7885;42.596;23.044;2023-05-19T01:41:24;93176.41;;;10.84;100.00
15568;BME280;7885;42.596;23.044;2023-05-19T01:43:52;93165.13;;;10.60;100.00
15568;BME280;7885;42.596;23.044;2023-05-19T01:46:20;93166.28;;;10.56;100.00
15568;BME280;7885;42.596;23.044;2023-05-19T01:48:49;93152.28;;;10.50;100.00
15568;BME280;7885;42.596;23.044;2023-05-19T01:51:15;93170.56;;;10.46;100.00
15568;BME280;7885;42.596;23.044;2023-05-19T01:53:42;93160.44;;;10.40;100.00
15568;BME280;7885;42.596;23.044;2023-05-19T01:56:09;93161.59;;;10.35;100.00
15568;BME280;7885;42.596;23.044;2023-05-19T01:58:40;93161.97;;;10.27;100.00
15568;BME280;7885;42.596;23.044;2023-05-19T02:01:15;93156.13;;;10.21;100.00
15568;BME280;7885;42.596;23.044;2023-05-19T02:04:00;93165.09;;;10.36;100.00
15568;BME280;7885;42.596;23.044;2023-05-19T02:06:36;93171.69;;;10.38;100.00
15568;BME280;7885;42.596;23.044;2023-05-19T02:09:10;93161.22;;;10.33;100.00
15568;BME280;7885;42.596;23.044;2023-05-19T02:11:41;93165.50;;;10.31;100.00
15568;BME280;7885;42.596;23.044;2023-05-19T02:14:14;93166.22;;;10.24;100.00
15568;BME280;7885;42.596;23.044;2023-05-19T02:16:44;93173.16;;;10.11;100.00
15568;BME280;7885;42.596;23.044;2023-05-19T02:19:21;93164.59;;;9.98;100.00
15568;BME280;7885;42.596;23.044;2023-05-19T02:21:48;93171.59;;;9.92;100.00
15568;BME280;7885;42.596;23.044;2023-05-19T02:24:14;93155.53;;;9.66;100.00
15568;BME280;7885;42.596;23.044;2023-05-19T02:26:41;93168.00;;;9.74;100.00
15568;BME280;7885;42.596;23.044;2023-05-19T02:29:08;93165.28;;;9.71;100.00
15568;BME280;7885;42.596;23.044;2023-05-19T02:31:35;93175.38;;;9.74;100.00
15568;BME280;7885;42.596;23.044;2023-05-19T02:34:02;93175.38;;;9.74;100.00
15568;BME280;7885;42.596;23.044;2023-05-19T02:36:32;93173.06;;;9.69;100.00
15568;BME280;7885;42.596;23.044;2023-05-19T02:39:00;93183.91;;;9.76;100.00
15568;BME280;7885;42.596;23.044;2023-05-19T02:41:27;93182.00;;;9.76;100.00
15568;BME280;7885;42.596;23.044;2023-05-19T02:43:54;93189.38;;;9.72;100.00
15568;BME280;7885;42.596;23.044;2023-05-19T02:46:21;93176.94;;;9.75;100.00
15568;BME280;7885;42.596;23.044;2023-05-19T02:48:47;93186.28;;;9.77;100.00
15568;BME280;7885;42.596;23.044;2023-05-19T02:51:14;93176.94;;;9.75;100.00
15568;BME280;7885;42.596;23.044;2023-05-19T02:53:42;93185.13;;;9.82;100.00
15568;BME280;7885;42.596;23.044;2023-05-19T02:56:09;93186.31;;;9.88;100.00
15568;BME280;7885;42.596;23.044;2023-05-19T02:58:36;93189.41;;;9.90;100.00
15568;BME280;7885;42.596;23.044;2023-05-19T03:01:03;93191.41;;;9.93;100.00
15568;BME280;7885;42.596;23.044;2023-05-19T03:03:30;93191.81;;;10.02;100.00
15568;BME280;7885;42.596;23.044;2023-05-19T03:05:58;93200.75;;;10.02;100.00
15568;BME280;7885;42.596;23.044;2023-05-19T03:08:24;93201.91;;;10.05;100.00
15568;BME280;7885;42.596;23.044;2023-05-19T03:10:52;93205.81;;;10.11;100.00
15568;BME280;7885;42.596;23.044;2023-05-19T03:13:19;93194.91;;;10.00;100.00
15568;BME280;7885;42.596;23.044;2023-05-19T03:15:46;93201.13;;;10.01;100.00
15568;BME280;7885;42.596;23.044;2023-05-19T03:18:15;93206.56;;;10.01;100.00
15568;BME280;7885;42.596;23.044;2023-05-19T03:20:42;93184.38;;;9.92;100.00
15568;BME280;7885;42.596;23.044;2023-05-19T03:23:09;93209.69;;;10.03;100.00
15568;BME280;7885;42.596;23.044;2023-05-19T03:25:35;93210.44;;;10.07;100.00
15568;BME280;7885;42.596;23.044;2023-05-19T03:28:04;93207.38;;;10.12;100.00
15568;BME280;7885;42.596;23.044;2023-05-19T03:30:31;93214.44;;;10.24;100.00
15568;BME280;7885;42.596;23.044;2023-05-19T03:32:57;93208.25;;;10.34;100.00
15568;BME280;7885;42.596;23.044;2023-05-19T03:35:25;93205.94;;;10.46;100.00
15568;BME280;7885;42.596;23.044;2023-05-19T03:37:52;93214.09;;;10.53;100.00
15568;BME280;7885;42.596;23.044;2023-05-19T03:40:19;93211.41;;;10.60;100.00
15568;BME280;7885;42.596;23.044;2023-05-19T03:42:46;93212.19;;;10.68;100.00
15568;BME280;7885;42.596;23.044;2023-05-19T03:45:14;93211.78;;;10.73;100.00
15568;BME280;7885;42.596;23.044;2023-05-19T03:47:40;93216.88;;;10.82;100.00
15568;BME280;7885;42.596;23.044;2023-05-19T03:50:08;93220.75;;;10.88;100.00
15568;BME280;7885;42.596;23.044;2023-05-19T03:52:35;93210.63;;;10.92;100.00
15568;BME280;7885;42.596;23.044;2023-05-19T03:55:03;93218.41;;;10.93;100.00
15568;BME280;7885;42.596;23.044;2023-05-19T03:57:30;93211.81;;;10.98;100.00
15568;BME280;7885;42.596;23.044;2023-05-19T03:59:57;93212.97;;;11.04;100.00
15568;BME280;7885;42.596;23.044;2023-05-19T04:02:25;93211.44;;;11.03;100.00
15568;BME280;7885;42.596;23.044;2023-05-19T04:04:52;93210.63;;;11.13;100.00
15568;BME280;7885;42.596;23.044;2023-05-19T04:07:19;93195.09;;;11.06;100.00
15568;BME280;7885;42.596;23.044;2023-05-19T04:09:45;93217.25;;;11.15;100.00
15568;BME280;7885;42.596;23.044;2023-05-19T04:12:12;93216.84;;;11.21;100.00
15568;BME280;7885;42.596;23.044;2023-05-19T04:14:39;93212.97;;;11.22;100.00
15568;BME280;7885;42.596;23.044;2023-05-19T04:17:06;93220.75;;;11.23;100.00
15568;BME280;7885;42.596;23.044;2023-05-19T04:19:34;93213.72;;;11.26;100.00
15568;BME280;7885;42.596;23.044;2023-05-19T04:22:01;93217.63;;;11.32;100.00
15568;BME280;7885;42.596;23.044;2023-05-19T04:24:28;93223.06;;;11.35;100.00
15568;BME280;7885;42.596;23.044;2023-05-19T04:26:54;93219.16;;;11.36;100.00
15568;BME280;7885;42.596;23.044;2023-05-19T04:29:21;93199.72;;;11.31;100.00
15568;BME280;7885;42.596;23.044;2023-05-19T04:31:48;93221.88;;;11.47;100.00
15568;BME280;7885;42.596;23.044;2023-05-19T04:34:15;93224.97;;;11.52;100.00
15568;BME280;7885;42.596;23.044;2023-05-19T04:36:45;93220.66;;;11.62;100.00
15568;BME280;7885;42.596;23.044;2023-05-19T04:39:12;93217.16;;;11.69;100.00
15568;BME280;7885;42.596;23.044;2023-05-19T04:41:40;93223.00;;;11.81;100.00
15568;BME280;7885;42.596;23.044;2023-05-19T04:44:09;93222.97;;;11.88;100.00
15568;BME280;7885;42.596;23.044;2023-05-19T04:46:37;93220.59;;;12.01;100.00
15568;BME280;7885;42.596;23.044;2023-05-19T04:49:04;93226.41;;;12.10;100.00
15568;BME280;7885;42.596;23.044;2023-05-19T04:51:32;93229.06;;;12.21;100.00
15568;BME280;7885;42.596;23.044;2023-05-19T04:54:01;93229.47;;;12.19;100.00
15568;BME280;7885;42.596;23.044;2023-05-19T04:56:28;93227.84;;;12.32;100.00
15568;BME280;7885;42.596;23.044;2023-05-19T04:58:55;93233.66;;;12.41;100.00
15568;BME280;7885;42.596;23.044;2023-05-19T05:01:21;93230.53;;;12.46;100.00
15568;BME280;7885;42.596;23.044;2023-05-19T05:03:50;93228.91;;;12.52;100.00
15568;BME280;7885;42.596;23.044;2023-05-19T05:06:19;93238.31;;;12.51;100.00
15568;BME280;7885;42.596;23.044;2023-05-19T05:08:46;93234.00;;;12.50;100.00
15568;BME280;7885;42.596;23.044;2023-05-19T05:11:14;93243.72;;;12.55;100.00
15568;BME280;7885;42.596;23.044;2023-05-19T05:13:42;93235.47;;;12.65;100.00
15568;BME280;7885;42.596;23.044;2023-05-19T05:16:10;93238.13;;;12.80;100.00
15568;BME280;7885;42.596;23.044;2023-05-19T05:18:37;93235.72;;;12.89;100.00
15568;BME280;7885;42.596;23.044;2023-05-19T05:21:05;93231.38;;;12.95;100.00
15568;BME280;7885;42.596;23.044;2023-05-19T05:23:33;93240.25;;;13.13;100.00
15568;BME280;7885;42.596;23.044;2023-05-19T05:26:08;93236.28;;;13.21;100.00
15568;BME280;7885;42.596;23.044;2023-05-19T05:28:37;93237.78;;;13.29;100.00
15568;BME280;7885;42.596;23.044;2023-05-19T05:31:03;93237.75;;;13.33;100.00
15568;BME280;7885;42.596;23.044;2023-05-19T05:33:30;93239.75;;;13.29;99.45
15568;BME280;7885;42.596;23.044;2023-05-19T05:35:57;93242.09;;;13.30;99.86
15568;BME280;7885;42.596;23.044;2023-05-19T05:38:24;93232.06;;;13.13;99.72
15568;BME280;7885;42.596;23.044;2023-05-19T05:40:50;93253.53;;;13.11;99.98
15568;BME280;7885;42.596;23.044;2023-05-19T05:43:17;93237.19;;;13.00;100.00
15568;BME280;7885;42.596;23.044;2023-05-19T05:45:45;93244.16;;;13.12;100.00
15568;BME280;7885;42.596;23.044;2023-05-19T05:48:12;93241.78;;;13.18;100.00
15568;BME280;7885;42.596;23.044;2023-05-19T05:50:42;93241.69;;;13.28;100.00
15568;BME280;7885;42.596;23.044;2023-05-19T05:53:15;93223.44;;;13.18;100.00
15568;BME280;7885;42.596;23.044;2023-05-19T05:55:44;93249.03;;;13.38;100.00
15568;BME280;7885;42.596;23.044;2023-05-19T05:58:11;93248.13;;;13.52;100.00
15568;BME280;7885;42.596;23.044;2023-05-19T06:00:39;93251.28;;;13.50;100.00
15568;BME280;7885;42.596;23.044;2023-05-19T06:03:09;93240.25;;;13.61;100.00
15568;BME280;7885;42.596;23.044;2023-05-19T06:05:36;93253.38;;;13.77;99.07
15568;BME280;7885;42.596;23.044;2023-05-19T06:08:03;93240.53;;;13.70;99.51
15568;BME280;7885;42.596;23.044;2023-05-19T06:10:30;93242.81;;;13.79;100.00
15568;BME280;7885;42.596;23.044;2023-05-19T06:12:57;93242.34;;;13.84;100.00
15568;BME280;7885;42.596;23.044;2023-05-19T06:15:24;93261.22;;;14.12;99.57
15568;BME280;7885;42.596;23.044;2023-05-19T06:17:50;93250.19;;;14.19;97.89
15568;BME280;7885;42.596;23.044;2023-05-19T06:20:18;93262.63;;;14.27;98.52
15568;BME280;7885;42.596;23.044;2023-05-19T06:22:45;93263.28;;;14.38;98.07
15568;BME280;7885;42.596;23.044;2023-05-19T06:25:12;93257.78;;;14.38;97.94
15568;BME280;7885;42.596;23.044;2023-05-19T06:27:39;93261.09;;;14.56;97.67
15568;BME280;7885;42.596;23.044;2023-05-19T06:30:07;93260.28;;;14.59;96.26
15568;BME280;7885;42.596;23.044;2023-05-19T06:32:34;93263.59;;;14.74;96.36
15568;BME280;7885;42.596;23.044;2023-05-19T06:35:00;93250.69;;;14.75;97.24
15568;BME280;7885;42.596;23.044;2023-05-19T06:37:28;93259.72;;;14.72;95.79
15568;BME280;7885;42.596;23.044;2023-05-19T06:39:55;93261.06;;;14.87;96.96
15568;BME280;7885;42.596;23.044;2023-05-19T06:42:22;93269.31;;;14.87;96.00
15568;BME280;7885;42.596;23.044;2023-05-19T06:44:49;93266.97;;;14.85;96.23
15568;BME280;7885;42.596;23.044;2023-05-19T06:47:17;93262.72;;;14.81;96.73
15568;BME280;7885;42.596;23.044;2023-05-19T06:49:44;93269.59;;;14.96;95.07
15568;BME280;7885;42.596;23.044;2023-05-19T06:52:14;93268.69;;;15.02;94.25
15568;BME280;7885;42.596;23.044;2023-05-19T06:54:43;93275.34;;;15.28;95.52
15568;BME280;7885;42.596;23.044;2023-05-19T06:57:09;93278.47;;;15.30;93.66
15568;BME280;7885;42.596;23.044;2023-05-19T06:59:36;93274.22;;;15.52;94.04
15568;BME280;7885;42.596;23.044;2023-05-19T07:02:05;93280.09;;;15.54;91.20
15568;BME280;7885;42.596;23.044;2023-05-19T07:04:32;93269.47;;;15.56;96.25
15568;BME280;7885;42.596;23.044;2023-05-19T07:06:59;93270.72;;;15.75;95.68
15568;BME280;7885;42.596;23.044;2023-05-19T07:09:26;93277.38;;;15.97;93.05
15568;BME280;7885;42.596;23.044;2023-05-19T07:11:54;93278.63;;;16.16;91.64
15568;BME280;7885;42.596;23.044;2023-05-19T07:14:21;93272.72;;;16.37;90.34
15568;BME280;7885;42.596;23.044;2023-05-19T07:16:48;93263.34;;;16.54;89.37
15568;BME280;7885;42.596;23.044;2023-05-19T07:19:14;93287.47;;;16.66;87.35
15568;BME280;7885;42.596;23.044;2023-05-19T07:21:44;93279.63;;;16.85;88.70
15568;BME280;7885;42.596;23.044;2023-05-19T07:24:11;93275.38;;;17.00;88.83
15568;BME280;7885;42.596;23.044;2023-05-19T07:26:37;93284.69;;;17.06;87.23
15568;BME280;7885;42.596;23.044;2023-05-19T07:29:05;93282.19;;;17.11;86.60
15568;BME280;7885;42.596;23.044;2023-05-19T07:31:32;93282.75;;;17.23;85.26
15568;BME280;7885;42.596;23.044;2023-05-19T07:33:59;93273.31;;;17.40;86.47
15568;BME280;7885;42.596;23.044;2023-05-19T07:36:26;93274.13;;;17.56;85.50
15568;BME280;7885;42.596;23.044;2023-05-19T07:38:52;93269.13;;;17.67;85.15
15568;BME280;7885;42.596;23.044;2023-05-19T07:41:19;93276.19;;;17.69;81.68
15568;BME280;7885;42.596;23.044;2023-05-19T07:43:47;93264.22;;;17.75;81.80
15568;BME280;7885;42.596;23.044;2023-05-19T07:46:15;93281.59;;;17.88;80.21
15568;BME280;7885;42.596;23.044;2023-05-19T07:48:42;93272.53;;;18.04;79.61
15568;BME280;7885;42.596;23.044;2023-05-19T07:51:10;93268.34;;;18.28;80.15
15568;BME280;7885;42.596;23.044;2023-05-19T07:53:37;93268.94;;;18.36;78.40
15568;BME280;7885;42.596;23.044;2023-05-19T07:56:05;93273.59;;;18.67;80.51
15568;BME280;7885;42.596;23.044;2023-05-19T07:58:31;93281.91;;;18.80;76.66
15568;BME280;7885;42.596;23.044;2023-05-19T08:00:58;93276.97;;;18.88;75.72
15568;BME280;7885;42.596;23.044;2023-05-19T08:03:27;93278.53;;;19.14;74.51
15568;BME280;7885;42.596;23.044;2023-05-19T08:05:54;93279.88;;;19.22;75.01
15568;BME280;7885;42.596;23.044;2023-05-19T08:08:21;93275.25;;;19.19;74.00
15568;BME280;7885;42.596;23.044;2023-05-19T08:10:48;93281.34;;;19.27;73.37
15568;BME280;7885;42.596;23.044;2023-05-19T08:13:15;93275.72;;;19.30;73.69
15568;BME280;7885;42.596;23.044;2023-05-19T08:15:41;93274.03;;;19.33;72.37
15568;BME280;7885;42.596;23.044;2023-05-19T08:18:08;93270.19;;;19.30;73.43
15568;BME280;7885;42.596;23.044;2023-05-19T08:20:36;93272.88;;;19.46;73.36
15568;BME280;7885;42.596;23.044;2023-05-19T08:23:03;93274.53;;;19.56;73.23
15568;BME280;7885;42.596;23.044;2023-05-19T08:25:30;93278.84;;;19.57;72.88
15568;BME280;7885;42.596;23.044;2023-05-19T08:27:56;93268.69;;;19.54;71.43
15568;BME280;7885;42.596;23.044;2023-05-19T08:30:23;93260.59;;;19.60;71.25
15568;BME280;7885;42.596;23.044;2023-05-19T08:32:50;93276.59;;;19.78;72.22
15568;BME280;7885;42.596;23.044;2023-05-19T08:35:17;93264.44;;;19.88;72.06
15568;BME280;7885;42.596;23.044;2023-05-19T08:37:45;93259.38;;;19.74;72.37
15568;BME280;7885;42.596;23.044;2023-05-19T08:40:15;93270.63;;;19.92;72.82
15568;BME280;7885;42.596;23.044;2023-05-19T08:42:42;93270.94;;;19.94;72.86
15568;BME280;7885;42.596;23.044;2023-05-19T08:45:09;93276.88;;;20.05;72.47
15568;BME280;7885;42.596;23.044;2023-05-19T08:47:36;93272.75;;;20.22;71.55
15568;BME280;7885;42.596;23.044;2023-05-19T08:50:06;93272.19;;;20.40;72.17
15568;BME280;7885;42.596;23.044;2023-05-19T08:52:42;93271.09;;;20.37;70.34
15568;BME280;7885;42.596;23.044;2023-05-19T08:55:23;93273.59;;;20.44;71.30
15568;BME280;7885;42.596;23.044;2023-05-19T08:57:53;93277.09;;;20.57;70.26
15568;BME280;7885;42.596;23.044;2023-05-19T09:00:20;93262.41;;;20.48;71.15
15568;BME280;7885;42.596;23.044;2023-05-19T09:02:48;93260.13;;;20.68;70.28
15568;BME280;7885;42.596;23.044;2023-05-19T09:05:15;93266.53;;;20.87;70.88
15568;BME280;7885;42.596;23.044;2023-05-19T09:07:43;93262.81;;;20.81;69.84
15568;BME280;7885;42.596;23.044;2023-05-19T09:10:11;93272.00;;;20.78;68.38
15568;BME280;7885;42.596;23.044;2023-05-19T09:12:42;93262.69;;;20.84;68.44
15568;BME280;7885;42.596;23.044;2023-05-19T09:15:11;93254.50;;;21.02;70.38
15568;BME280;7885;42.596;23.044;2023-05-19T09:17:38;93253.22;;;21.16;68.86
15568;BME280;7885;42.596;23.044;2023-05-19T09:20:06;93266.28;;;21.15;67.16
15568;BME280;7885;42.596;23.044;2023-05-19T09:22:40;93259.34;;;21.11;67.46
15568;BME280;7885;42.596;23.044;2023-05-19T09:25:16;93266.72;;;21.14;66.56
15568;BME280;7885;42.596;23.044;2023-05-19T09:27:46;93255.44;;;21.08;67.23
15568;BME280;7885;42.596;23.044;2023-05-19T09:30:14;93253.59;;;21.05;65.56
15568;BME280;7885;42.596;23.044;2023-05-19T09:32:41;93248.31;;;21.20;67.85
15568;BME280;7885;42.596;23.044;2023-05-19T09:35:08;93248.94;;;21.24;66.60
15568;BME280;7885;42.596;23.044;2023-05-19T09:37:38;93244.97;;;21.34;65.38
15568;BME280;7885;42.596;23.044;2023-05-19T09:40:06;93261.19;;;21.45;64.73
15568;BME280;7885;42.596;23.044;2023-05-19T09:42:36;93249.97;;;21.48;65.27
15568;BME280;7885;42.596;23.044;2023-05-19T09:45:06;93249.38;;;21.44;64.39
15568;BME280;7885;42.596;23.044;2023-05-19T09:47:33;93241.53;;;21.52;65.71
15568;BME280;7885;42.596;23.044;2023-05-19T09:50:01;93244.50;;;21.66;64.32
15568;BME280;7885;42.596;23.044;2023-05-19T09:52:28;93242.72;;;21.82;64.37
15568;BME280;7885;42.596;23.044;2023-05-19T09:54:55;93246.31;;;21.91;62.50
15568;BME280;7885;42.596;23.044;2023-05-19T09:57:24;93243.59;;;22.09;62.56
15568;BME280;7885;42.596;23.044;2023-05-19T09:59:54;93245.59;;;22.18;62.14
15568;BME280;7885;42.596;23.044;2023-05-19T10:02:23;93245.28;;;22.25;62.86
15568;BME280;7885;42.596;23.044;2023-05-19T10:04:51;93242.81;;;22.45;60.35
15568;BME280;7885;42.596;23.044;2023-05-19T10:07:19;93250.88;;;22.61;61.87
15568;BME280;7885;42.596;23.044;2023-05-19T10:09:49;93234.81;;;22.56;57.26
15568;BME280;7885;42.596;23.044;2023-05-19T10:12:17;93234.22;;;22.43;57.34
15568;BME280;7885;42.596;23.044;2023-05-19T10:14:44;93219.09;;;22.53;58.30
15568;BME280;7885;42.596;23.044;2023-05-19T10:17:12;93218.31;;;22.62;58.39
15568;BME280;7885;42.596;23.044;2023-05-19T10:19:42;93222.78;;;22.87;59.22
15568;BME280;7885;42.596;23.044;2023-05-19T10:22:10;93229.53;;;23.13;57.56
15568;BME280;7885;42.596;23.044;2023-05-19T10:24:36;93225.81;;;23.07;57.01
15568;BME280;7885;42.596;23.044;2023-05-19T10:27:07;93215.97;;;22.97;56.11
15568;BME280;7885;42.596;23.044;2023-05-19T10:29:39;93215.66;;;23.13;56.52
15568;BME280;7885;42.596;23.044;2023-05-19T10:32:11;93223.38;;;23.09;56.27
15568;BME280;7885;42.596;23.044;2023-05-19T10:35:13;93215.44;;;23.44;58.24
15568;BME280;7885;42.596;23.044;2023-05-19T10:37:45;93204.53;;;23.64;55.92
15568;BME280;7885;42.596;23.044;2023-05-19T10:40:20;93220.28;;;23.91;54.88
15568;BME280;7885;42.596;23.044;2023-05-19T10:43:01;93213.84;;;24.08;53.72
15568;BME280;7885;42.596;23.044;2023-05-19T10:45:36;93215.78;;;24.26;54.93
15568;BME280;7885;42.596;23.044;2023-05-19T10:48:09;93218.06;;;24.28;55.54
15568;BME280;7885;42.596;23.044;2023-05-19T10:50:38;93218.31;;;24.15;50.52
15568;BME280;7885;42.596;23.044;2023-05-19T10:53:13;93215.56;;;24.06;51.19
15568;BME280;7885;42.596;23.044;2023-05-19T10:55:46;93218.25;;;24.24;53.14
15568;BME280;7885;42.596;23.044;2023-05-19T10:58:13;93215.66;;;24.44;51.43
15568;BME280;7885;42.596;23.044;2023-05-19T11:00:40;93208.09;;;24.59;51.56
15568;BME280;7885;42.596;23.044;2023-05-19T11:03:13;93211.13;;;24.47;49.10
15568;BME280;7885;42.596;23.044;2023-05-19T11:05:41;93208.75;;;24.54;49.46
15568;BME280;7885;42.596;23.044;2023-05-19T11:08:10;93188.50;;;24.16;49.27
15568;BME280;7885;42.596;23.044;2023-05-19T11:10:37;93198.41;;;24.07;48.94
15568;BME280;7885;42.596;23.044;2023-05-19T11:13:04;93210.53;;;23.95;49.97
15568;BME280;7885;42.596;23.044;2023-05-19T11:15:34;93206.91;;;24.04;48.03
15568;BME280;7885;42.596;23.044;2023-05-19T11:18:01;93190.25;;;24.28;48.32
15568;BME280;7885;42.596;23.044;2023-05-19T11:20:29;93183.72;;;24.54;48.54
15568;BME280;7885;42.596;23.044;2023-05-19T11:23:07;93186.41;;;24.63;48.52
15568;BME280;7885;42.596;23.044;2023-05-19T11:25:45;93193.28;;;24.92;48.53
15568;BME280;7885;42.596;23.044;2023-05-19T11:28:14;93190.50;;;25.21;49.51
15568;BME280;7885;42.596;23.044;2023-05-19T11:30:43;93189.31;;;25.42;47.26
15568;BME280;7885;42.596;23.044;2023-05-19T11:33:10;93195.13;;;25.53;47.75
15568;BME280;7885;42.596;23.044;2023-05-19T11:35:37;93193.94;;;25.60;44.83
15568;BME280;7885;42.596;23.044;2023-05-19T11:38:06;93188.66;;;25.47;40.63
15568;BME280;7885;42.596;23.044;2023-05-19T11:40:33;93193.97;;;25.16;43.11
15568;BME280;7885;42.596;23.044;2023-05-19T11:43:00;93183.88;;;25.04;40.61
15568;BME280;7885;42.596;23.044;2023-05-19T11:45:28;93183.78;;;25.13;39.46
15568;BME280;7885;42.596;23.044;2023-05-19T11:47:57;93177.63;;;25.09;39.82
15568;BME280;7885;42.596;23.044;2023-05-19T11:50:24;93172.06;;;25.09;41.84
15568;BME280;7885;42.596;23.044;2023-05-19T11:52:51;93170.31;;;24.97;38.55
15568;BME280;7885;42.596;23.044;2023-05-19T11:55:20;93172.47;;;25.02;42.36
15568;BME280;7885;42.596;23.044;2023-05-19T11:57:55;93168.59;;;25.14;43.61
15568;BME280;7885;42.596;23.044;2023-05-19T12:00:23;93154.19;;;25.01;43.50
15568;BME280;7885;42.596;23.044;2023-05-19T12:02:50;93172.25;;;24.91;43.82
15568;BME280;7885;42.596;23.044;2023-05-19T12:05:18;93169.91;;;24.75;43.04
15568;BME280;7885;42.596;23.044;2023-05-19T12:07:45;93176.88;;;24.55;43.19
15568;BME280;7885;42.596;23.044;2023-05-19T12:10:14;93169.81;;;24.31;41.46
15568;BME280;7885;42.596;23.044;2023-05-19T12:12:42;93162.97;;;24.55;43.22
15568;BME280;7885;42.596;23.044;2023-05-19T12:15:10;93161.13;;;24.91;46.53
15568;BME280;7885;42.596;23.044;2023-05-19T12:17:37;93147.47;;;24.93;44.21
15568;BME280;7885;42.596;23.044;2023-05-19T12:20:05;93146.03;;;24.68;44.37
15568;BME280;7885;42.596;23.044;2023-05-19T12:22:32;93150.25;;;24.78;45.90
15568;BME280;7885;42.596;23.044;2023-05-19T12:24:59;93145.69;;;24.51;46.21
15568;BME280;7885;42.596;23.044;2023-05-19T12:27:27;93160.38;;;24.13;48.78
15568;BME280;7885;42.596;23.044;2023-05-19T12:29:55;93160.84;;;23.23;50.13
15568;BME280;7885;42.596;23.044;2023-05-19T12:32:23;93167.94;;;22.54;53.30
15568;BME280;7885;42.596;23.044;2023-05-19T12:34:50;93159.94;;;22.11;54.14
15568;BME280;7885;42.596;23.044;2023-05-19T12:37:17;93162.75;;;21.53;53.63
15568;BME280;7885;42.596;23.044;2023-05-19T12:39:45;93188.25;;;21.08;53.88
15568;BME280;7885;42.596;23.044;2023-05-19T12:42:11;93193.06;;;20.86;54.19
15568;BME280;7885;42.596;23.044;2023-05-19T12:44:41;93198.75;;;20.60;55.19
15568;BME280;7885;42.596;23.044;2023-05-19T12:47:12;93182.28;;;20.35;54.88
15568;BME280;7885;42.596;23.044;2023-05-19T12:49:52;93220.88;;;20.60;55.95
15568;BME280;7885;42.596;23.044;2023-05-19T12:52:19;93219.56;;;20.52;55.97
15568;BME280;7885;42.596;23.044;2023-05-19T12:54:47;93229.09;;;20.51;57.38
15568;BME280;7885;42.596;23.044;2023-05-19T12:57:15;93216.13;;;20.61;55.42
15568;BME280;7885;42.596;23.044;2023-05-19T12:59:42;93208.78;;;20.45;55.63
15568;BME280;7885;42.596;23.044;2023-05-19T13:02:09;93206.69;;;21.02;56.29
15568;BME280;7885;42.596;23.044;2023-05-19T13:04:37;93219.09;;;21.19;55.43